Cadiz, OH (43907)

12:49 PM EDT die 27o August, anno 2016 (GMT -0400)
Steubenville Pike | | Change Station

Elev 1237 ft 40.28 °N, 80.99 °W | Updated 27 seconds ago

Clear
Serena
83.3 °F
Feels Like 88 °F
N
5.8
Ventus Variabilis Ventus from Magis Auster quam Zephyrus
Gusts 7.4 mph

Hodie
High -- | Low -- °F
--% Chance of Precip.
Yesterday
High -- | Low -- °F
Precip. -- in
Pressio 30.16 in
Visibilitas 10.0 milia passuum
Clouds Serena
Index Caloris 88 °F
Frigus in quo Ros apparet 71 °F
Umor 66%
Rainfall 0.00 in
Snow Depth Not available.
6:47 AM 8:02 PM
Waning Crescent, 23% visible
METAR KHLG 271553Z 14006KT 10SM CLR 29/21 A3018 RMK AO2 SLP211 T02890206
Pressio 30.16 in
Visibilitas 10.0 milia passuum
Clouds Serena
Index Caloris 88 °F
Frigus in quo Ros apparet 71 °F
Umor 66%
Rainfall 0.00 in
Snow Depth Not available.
6:47 AM 8:02 PM
Waning Crescent, 23% visible
METAR KHLG 271553Z 14006KT 10SM CLR 29/21 A3018 RMK AO2 SLP211 T02890206

10-Day Weather Forecast

Almanac

Astronomy

Aug. 27, 2016 Rise Set
Actual Time
Civil Twilight
Nautical Twilight
Astronomical Twilight
Moon
Length Of Visible Light
Length of Day
Tomorrow will be .
, % of the Moon is Illuminated

Today's Extremes

State Highs State Lows

Community

WunderPhotos

Upload Photos

1,935,377 photos uploaded!

WunderBlog® & News

Nearby

Air Quality

  Air Quality AQ Index Pollutant
Not available.

Snow Depth

Station Depth Elevation

Earthquake Activity

City Distance Mag. Time & Date
Minimum magnitude displayed is 2.5.

Coastal Water Temperatures

Locus Calor

Stations

Nearby Weather Stations

Station Location Temp Frigus Venti Frigus in quo Ros apparet Umor Ventus Precip. Elev Renovata Type
                   

Watches & Warnings

There are currently no watches in effect.